createdAt,value
2019-02-28T00:01:48.514Z,12.93
2019-02-28T00:05:14.471Z,10.88
2019-02-28T00:08:40.426Z,10.35
2019-02-28T00:16:10.419Z,12.73
2019-02-28T00:19:36.277Z,11.10
2019-02-28T00:23:02.401Z,12.93
2019-02-28T00:26:48.090Z,12.45
2019-02-28T00:30:06.004Z,10.43
2019-02-28T00:37:43.187Z,12.68
2019-02-28T00:41:10.028Z,9.93
2019-02-28T00:44:54.251Z,11.20
2019-02-28T00:48:12.949Z,14.15
2019-02-28T00:51:31.216Z,11.50
2019-02-28T00:54:50.868Z,8.18
2019-02-28T00:58:09.021Z,8.13
2019-02-28T01:01:27.782Z,8.35
2019-02-28T01:04:46.631Z,6.87
2019-02-28T01:08:05.472Z,5.25
2019-02-28T01:11:24.510Z,7.62
2019-02-28T01:14:43.735Z,7.28
2019-02-28T01:18:03.836Z,10.68
2019-02-28T01:21:23.898Z,8.53
2019-02-28T01:24:42.841Z,8.85
2019-02-28T01:28:01.113Z,9.53
2019-02-28T01:31:20.173Z,7.95
2019-02-28T01:34:53.338Z,8.65
2019-02-28T01:38:19.415Z,8.68
2019-02-28T01:41:45.883Z,7.83
2019-02-28T01:45:30.565Z,9.65
2019-02-28T01:48:48.877Z,8.63
2019-02-28T01:52:09.624Z,9.58
2019-02-28T01:55:33.841Z,13.38
2019-02-28T01:58:59.684Z,10.75
2019-02-28T02:02:25.703Z,17.25
2019-02-28T02:05:52.641Z,13.30
2019-02-28T02:09:37.504Z,14.98
2019-02-28T02:16:54.077Z,10.50
2019-02-28T02:20:20.152Z,13.40
2019-02-28T02:23:46.096Z,9.95
2019-02-28T02:27:12.878Z,12.33
2019-02-28T02:34:29.868Z,10.98
2019-02-28T02:38:15.184Z,13.85
2019-02-28T02:41:41.108Z,14.98
2019-02-28T02:45:07.874Z,15.93
2019-02-28T02:48:25.956Z,13.48
2019-02-28T02:51:49.119Z,14.35
2019-02-28T02:55:04.637Z,12.75
2019-02-28T02:58:26.645Z,13.38
2019-02-28T03:01:44.227Z,15.38
2019-02-28T03:05:03.686Z,11.80
2019-02-28T03:08:22.615Z,13.10
2019-02-28T03:11:42.397Z,13.45
2019-02-28T03:15:00.992Z,15.50
2019-02-28T03:18:21.884Z,13.35
2019-02-28T03:25:33.278Z,14.13
2019-02-28T03:29:07.439Z,7.62
2019-02-28T03:32:45.814Z,8.70
2019-02-28T03:36:32.200Z,8.23
2019-02-28T03:40:03.139Z,8.08
2019-02-28T03:43:44.196Z,12.35
2019-02-28T03:47:40.583Z,12.33
2019-02-28T03:51:35.258Z,10.88
2019-02-28T03:55:03.209Z,8.33
2019-02-28T04:02:58.996Z,11.35
2019-02-28T04:06:42.373Z,8.93
2019-02-28T04:13:19.565Z,11.60
2019-02-28T04:17:04.591Z,10.80
2019-02-28T04:20:42.470Z,10.75
2019-02-28T04:24:15.719Z,22.60
2019-02-28T04:27:41.953Z,28.57
2019-02-28T04:31:26.891Z,22.40
2019-02-28T04:34:52.843Z,18.65
2019-02-28T04:38:20.725Z,22.35
2019-02-28T04:42:24.463Z,26.42
2019-02-28T04:46:11.902Z,24.30
2019-02-28T04:49:30.813Z,15.65
2019-02-28T04:52:49.586Z,30.10
2019-02-28T04:56:11.213Z,19.15
2019-02-28T04:59:28.289Z,11.65
2019-02-28T05:02:47.140Z,16.40
2019-02-28T05:06:06.056Z,12.18
2019-02-28T05:09:24.938Z,13.00
2019-02-28T05:12:44.703Z,9.25
2019-02-28T05:16:03.087Z,13.15
2019-02-28T05:19:21.871Z,12.35
2019-02-28T05:22:40.585Z,12.15
2019-02-28T05:25:59.491Z,14.20
2019-02-28T05:29:17.681Z,14.45
2019-02-28T05:32:36.382Z,13.70
2019-02-28T05:35:43.298Z,14.55
2019-02-28T05:39:09.172Z,15.68
2019-02-28T05:42:35.092Z,13.40
2019-02-28T05:46:01.043Z,13.62
2019-02-28T05:49:20.081Z,19.62
2019-02-28T05:52:38.223Z,14.85
2019-02-28T05:55:59.695Z,13.00
2019-02-28T05:59:15.231Z,11.22
2019-02-28T06:02:41.213Z,15.98
2019-02-28T06:06:08.040Z,13.98
2019-02-28T06:09:52.201Z,19.17
2019-02-28T06:13:37.093Z,14.85
2019-02-28T06:17:01.657Z,14.73
2019-02-28T06:20:08.941Z,15.70
2019-02-28T06:23:15.901Z,15.32
2019-02-28T06:26:22.750Z,18.40
2019-02-28T06:29:29.562Z,15.78
2019-02-28T06:32:36.521Z,13.95
2019-02-28T06:35:43.422Z,10.23
2019-02-28T06:38:51.501Z,13.25
2019-02-28T06:42:16.711Z,13.83
2019-02-28T06:45:42.686Z,13.80
2019-02-28T06:49:06.099Z,15.95
2019-02-28T06:52:22.282Z,15.03
2019-02-28T06:55:29.203Z,14.53
2019-02-28T06:58:55.267Z,13.38
2019-02-28T07:02:21.140Z,12.70
2019-02-28T07:05:46.999Z,33.05
2019-02-28T07:09:12.806Z,14.63
2019-02-28T07:12:38.668Z,12.80
2019-02-28T07:16:04.727Z,15.15
2019-02-28T07:19:30.598Z,16.40
2019-02-28T07:22:56.483Z,12.93
2019-02-28T07:26:22.532Z,18.12
2019-02-28T07:29:29.405Z,18.65
2019-02-28T07:32:55.295Z,10.15
2019-02-28T07:36:21.267Z,18.35
2019-02-28T07:39:28.148Z,18.67
2019-02-28T07:42:54.135Z,12.53
2019-02-28T07:46:00.931Z,19.05
2019-02-28T07:49:07.746Z,21.63
2019-02-28T07:52:16.958Z,15.33
2019-02-28T07:55:27.293Z,17.23
2019-02-28T08:01:37.544Z,21.13
2019-02-28T08:05:05.186Z,15.83
2019-02-28T08:08:31.367Z,17.90
2019-02-28T08:11:57.354Z,16.33
2019-02-28T08:15:41.382Z,32.33
2019-02-28T08:19:08.108Z,15.27
2019-02-28T08:22:56.857Z,19.10
2019-02-28T08:26:39.379Z,20.63
2019-02-28T08:30:06.198Z,25.40
2019-02-28T08:33:33.197Z,28.50
2019-02-28T08:36:59.280Z,24.00
2019-02-28T08:40:26.647Z,26.47
2019-02-28T08:44:12.876Z,30.60
2019-02-28T08:47:57.816Z,25.90
2019-02-28T08:51:16.805Z,30.60
2019-02-28T08:54:35.549Z,28.97
2019-02-28T08:57:57.856Z,33.23
2019-02-28T09:01:15.709Z,32.07
2019-02-28T09:04:41.295Z,29.50
2019-02-28T09:07:55.754Z,28.37
2019-02-28T09:11:20.647Z,31.83
2019-02-28T09:14:38.885Z,33.60
2019-02-28T09:17:59.372Z,32.93
2019-02-28T09:21:20.784Z,39.43
2019-02-28T09:24:40.628Z,36.43
2019-02-28T09:27:58.923Z,30.90
2019-02-28T09:31:18.079Z,39.80
2019-02-28T09:34:37.856Z,38.30
2019-02-28T09:38:00.308Z,34.27
2019-02-28T09:41:22.836Z,39.53
2019-02-28T09:44:48.647Z,37.60
2019-02-28T09:48:07.724Z,39.23
2019-02-28T09:51:31.673Z,37.30
2019-02-28T09:54:49.106Z,35.33
2019-02-28T09:58:09.927Z,42.03
2019-02-28T10:01:28.822Z,35.13
2019-02-28T10:04:48.926Z,39.50
2019-02-28T10:08:15.154Z,37.67
2019-02-28T10:11:33.507Z,39.60
2019-02-28T10:14:52.529Z,41.20
2019-02-28T10:18:11.349Z,42.20
2019-02-28T10:21:33.269Z,36.60
2019-02-28T10:24:51.856Z,41.93
2019-02-28T10:28:09.190Z,42.63
2019-02-28T10:31:38.312Z,39.47
2019-02-28T10:35:20.373Z,43.20
2019-02-28T10:39:05.886Z,41.70
2019-02-28T10:42:50.465Z,40.83
2019-02-28T10:46:20.087Z,39.03
2019-02-28T10:49:58.264Z,43.77
2019-02-28T10:53:15.800Z,42.70
2019-02-28T10:56:35.906Z,42.90
2019-02-28T10:59:55.167Z,39.27
2019-02-28T11:03:14.391Z,44.57
2019-02-28T11:06:33.391Z,41.83
2019-02-28T11:09:52.184Z,42.87
2019-02-28T11:13:11.686Z,41.63
2019-02-28T11:16:30.515Z,38.77
2019-02-28T11:19:52.050Z,38.93
2019-02-28T11:23:14.323Z,43.43
2019-02-28T11:26:18.944Z,39.67
2019-02-28T11:29:45.479Z,41.77
2019-02-28T11:33:11.705Z,38.53
2019-02-28T11:36:38.026Z,39.77
2019-02-28T11:40:05.505Z,46.03
2019-02-28T11:43:49.850Z,42.27
2019-02-28T11:47:16.024Z,44.20
2019-02-28T11:50:34.970Z,40.93
2019-02-28T11:53:54.006Z,42.70
2019-02-28T11:57:12.979Z,42.53
2019-02-28T12:03:50.981Z,43.40
2019-02-28T12:07:09.498Z,44.03
2019-02-28T12:10:28.375Z,37.10
2019-02-28T12:13:47.242Z,40.57
2019-02-28T12:17:06.116Z,38.90
2019-02-28T12:20:26.450Z,38.53
2019-02-28T12:23:45.426Z,42.70
2019-02-28T12:27:06.922Z,42.27
2019-02-28T12:30:26.112Z,38.13
2019-02-28T12:33:44.759Z,38.33
2019-02-28T12:37:07.265Z,38.67
2019-02-28T12:40:26.206Z,42.37
2019-02-28T12:43:44.333Z,40.17
2019-02-28T12:47:03.295Z,40.47
2019-02-28T12:50:22.007Z,41.17
2019-02-28T12:53:42.388Z,42.23
2019-02-28T12:57:00.912Z,40.80
2019-02-28T13:00:23.123Z,38.53
2019-02-28T13:03:40.480Z,41.33
2019-02-28T13:06:59.534Z,46.90
2019-02-28T13:10:18.270Z,43.00
2019-02-28T13:13:45.880Z,39.87
2019-02-28T13:17:12.006Z,45.07
2019-02-28T13:20:38.102Z,40.63
2019-02-28T13:24:06.060Z,39.13
2019-02-28T13:27:50.312Z,42.67
2019-02-28T13:31:35.610Z,41.20
2019-02-28T13:38:49.629Z,37.63
2019-02-28T13:42:36.228Z,37.53
2019-02-28T13:46:19.570Z,40.30
2019-02-28T13:49:38.592Z,39.67
2019-02-28T13:53:03.346Z,38.30
2019-02-28T13:56:18.040Z,38.23
2019-02-28T13:59:36.802Z,36.10
2019-02-28T14:02:55.360Z,33.50
2019-02-28T14:06:18.902Z,37.27
2019-02-28T14:09:33.500Z,34.17
2019-02-28T14:12:53.210Z,40.30
2019-02-28T14:16:12.243Z,32.03
2019-02-28T14:19:30.958Z,35.97
2019-02-28T14:22:48.997Z,35.47
2019-02-28T14:26:07.681Z,40.00
2019-02-28T14:29:25.765Z,34.33
2019-02-28T14:32:45.534Z,34.30
2019-02-28T14:36:07.426Z,35.67
2019-02-28T14:39:24.080Z,28.63
2019-02-28T14:42:43.564Z,30.80
2019-02-28T14:46:02.493Z,35.37
2019-02-28T14:49:20.736Z,31.57
2019-02-28T14:52:39.377Z,29.57
2019-02-28T14:55:59.026Z,30.73
2019-02-28T14:59:17.150Z,35.90
2019-02-28T15:02:28.800Z,28.27
2019-02-28T15:06:10.766Z,29.10
2019-02-28T15:09:55.769Z,27.83
2019-02-28T15:13:40.823Z,24.40
2019-02-28T15:17:41.953Z,25.97
2019-02-28T15:25:19.359Z,25.83
2019-02-28T15:29:04.605Z,29.13
2019-02-28T15:36:20.975Z,25.77
2019-02-28T15:40:06.918Z,23.60
2019-02-28T15:47:36.919Z,23.83
2019-02-28T15:50:55.842Z,26.30
2019-02-28T15:54:21.771Z,28.20
2019-02-28T15:58:02.590Z,24.47
2019-02-28T16:01:17.360Z,22.37
2019-02-28T16:04:37.000Z,24.93
2019-02-28T16:11:55.052Z,23.60
2019-02-28T16:15:21.014Z,24.43
2019-02-28T16:18:56.725Z,22.17
2019-02-28T16:22:22.892Z,24.00
2019-02-28T16:25:50.205Z,24.37
2019-02-28T16:29:33.996Z,20.70
2019-02-28T16:32:59.930Z,19.27
2019-02-28T16:36:26.592Z,17.33
2019-02-28T16:40:11.863Z,18.23
2019-02-28T16:43:58.600Z,20.53
2019-02-28T16:47:44.348Z,17.53
2019-02-28T16:50:56.760Z,21.83
2019-02-28T16:54:22.536Z,22.73
2019-02-28T16:58:06.967Z,20.13
2019-02-28T17:05:43.472Z,23.17
2019-02-28T17:17:33.674Z,27.47
2019-02-28T17:20:59.901Z,22.10
2019-02-28T17:24:25.980Z,30.53
2019-02-28T17:28:12.261Z,24.63
2019-02-28T17:35:59.997Z,21.10
2019-02-28T17:39:25.891Z,24.40
2019-02-28T17:42:51.990Z,26.73
2019-02-28T17:46:17.917Z,25.80
2019-02-28T17:49:36.130Z,28.93
2019-02-28T17:52:55.767Z,22.83
2019-02-28T17:56:22.361Z,33.27
2019-02-28T17:59:36.062Z,25.90
2019-02-28T18:03:21.486Z,29.63
2019-02-28T18:07:08.066Z,27.80
2019-02-28T18:10:39.100Z,25.03
2019-02-28T18:14:11.318Z,26.67
2019-02-28T18:17:56.341Z,28.00
2019-02-28T18:21:41.923Z,23.97
2019-02-28T18:25:29.520Z,23.07
2019-02-28T18:29:32.312Z,32.93
2019-02-28T18:32:58.539Z,29.27
2019-02-28T18:36:15.551Z,28.23
2019-02-28T18:39:44.602Z,33.23
2019-02-28T18:47:18.882Z,35.07
2019-02-28T18:50:38.322Z,36.20
2019-02-28T18:53:57.102Z,35.07
2019-02-28T18:57:14.251Z,35.00
2019-02-28T19:00:40.205Z,38.43
2019-02-28T19:04:06.164Z,43.77
2019-02-28T19:07:32.129Z,46.93
2019-02-28T19:10:57.503Z,49.53
2019-02-28T19:14:23.375Z,55.30
2019-02-28T19:21:37.570Z,62.53
2019-02-28T19:25:03.568Z,52.97
2019-02-28T19:32:37.595Z,55.27
2019-02-28T19:36:04.502Z,53.73
2019-02-28T19:39:30.542Z,44.60
2019-02-28T19:42:56.629Z,46.57
2019-02-28T19:46:41.520Z,47.87
2019-02-28T19:50:00.562Z,43.03
2019-02-28T19:53:18.700Z,41.27
2019-02-28T19:56:37.001Z,38.70
2019-02-28T19:59:55.986Z,37.23
2019-02-28T20:03:14.956Z,41.13
2019-02-28T20:06:33.830Z,34.53
2019-02-28T20:09:52.551Z,32.30
2019-02-28T20:13:11.504Z,39.53
2019-02-28T20:16:29.763Z,32.53
2019-02-28T20:19:48.709Z,30.53
2019-02-28T20:23:07.858Z,35.53
2019-02-28T20:26:28.088Z,35.30
2019-02-28T20:29:54.950Z,32.77
2019-02-28T20:33:06.868Z,39.33
2019-02-28T20:36:25.805Z,35.77
2019-02-28T20:39:44.946Z,34.77
2019-02-28T20:43:03.616Z,34.40
2019-02-28T20:46:22.220Z,33.10
2019-02-28T20:49:41.362Z,40.07
2019-02-28T20:53:00.352Z,38.20
2019-02-28T20:56:18.575Z,31.80
2019-02-28T20:59:37.012Z,28.30
2019-02-28T21:02:55.794Z,34.20
2019-02-28T21:06:15.993Z,28.33
2019-02-28T21:09:34.140Z,35.33
2019-02-28T21:12:52.345Z,35.53
2019-02-28T21:16:11.202Z,30.60
2019-02-28T21:19:30.115Z,41.67
2019-02-28T21:22:49.110Z,35.17
2019-02-28T21:26:07.138Z,31.10
2019-02-28T21:29:25.949Z,39.60
2019-02-28T21:32:44.578Z,32.50
2019-02-28T21:36:03.025Z,36.53
2019-02-28T21:39:21.913Z,37.37
2019-02-28T21:42:40.131Z,35.43
2019-02-28T21:45:59.021Z,35.23
2019-02-28T21:49:17.988Z,29.47
2019-02-28T21:52:36.780Z,26.57
2019-02-28T21:55:54.897Z,31.83
2019-02-28T21:59:13.625Z,31.13
2019-02-28T22:02:31.690Z,27.90
2019-02-28T22:05:38.566Z,23.43
2019-02-28T22:09:05.014Z,27.80
2019-02-28T22:12:30.932Z,18.27
2019-02-28T22:15:56.821Z,20.47
2019-02-28T22:19:22.714Z,23.33
2019-02-28T22:23:07.042Z,18.23
2019-02-28T22:26:13.907Z,22.73
2019-02-28T22:33:47.452Z,19.50
2019-02-28T22:37:13.449Z,14.20
2019-02-28T22:40:39.486Z,16.07
2019-02-28T22:51:32.527Z,13.63
2019-02-28T22:54:51.633Z,15.90
2019-02-28T22:58:10.766Z,15.57
2019-02-28T23:01:29.204Z,18.80
2019-02-28T23:04:47.723Z,12.67
2019-02-28T23:08:06.454Z,15.70
2019-02-28T23:11:25.607Z,13.80
2019-02-28T23:14:44.351Z,12.13
2019-02-28T23:18:03.312Z,12.97
2019-02-28T23:21:21.380Z,17.13
2019-02-28T23:24:40.426Z,13.33
2019-02-28T23:27:58.538Z,10.83
2019-02-28T23:34:52.774Z,10.17
2019-02-28T23:38:11.769Z,14.57
2019-02-28T23:41:30.662Z,11.47
2019-02-28T23:44:49.000Z,9.70
2019-02-28T23:48:07.178Z,13.83
2019-02-28T23:51:26.310Z,13.17
2019-02-28T23:54:44.328Z,15.03
2019-02-28T23:58:02.491Z,14.70
